createdAt,value
2022-11-01T00:01:15.822Z,6.51
2022-11-01T00:04:20.661Z,6.48
2022-11-01T00:07:26.745Z,6.43
2022-11-01T00:10:32.775Z,6.34
2022-11-01T00:13:38.952Z,6.26
2022-11-01T00:16:45.762Z,6.24
2022-11-01T00:19:51.883Z,6.24
2022-11-01T00:22:58.046Z,6.22
2022-11-01T00:26:05.282Z,6.20
2022-11-01T00:29:12.429Z,6.19
2022-11-01T00:32:18.529Z,6.19
2022-11-01T00:35:24.651Z,6.16
2022-11-01T00:38:30.664Z,6.15
2022-11-01T00:41:36.889Z,6.16
2022-11-01T00:44:41.446Z,6.16
2022-11-01T00:47:49.353Z,6.17
2022-11-01T00:50:56.110Z,6.13
2022-11-01T00:54:03.008Z,6.09
2022-11-01T00:57:09.127Z,6.07
2022-11-01T01:00:17.104Z,6.05
2022-11-01T01:03:23.541Z,6.05
2022-11-01T01:06:29.711Z,6.02
2022-11-01T01:09:36.223Z,6.00
2022-11-01T01:12:42.303Z,5.99
2022-11-01T01:15:48.472Z,5.97
2022-11-01T01:18:54.551Z,5.96
2022-11-01T01:22:01.209Z,5.96
2022-11-01T01:25:08.744Z,5.97
2022-11-01T01:28:14.878Z,5.95
2022-11-01T01:31:20.918Z,5.91
2022-11-01T01:34:27.113Z,5.91
2022-11-01T01:37:33.293Z,5.93
2022-11-01T01:40:39.401Z,5.92
2022-11-01T01:43:46.544Z,5.90
2022-11-01T01:46:53.001Z,5.84
2022-11-01T01:50:04.201Z,5.81
2022-11-01T01:53:14.469Z,5.77
2022-11-01T01:56:26.252Z,5.75
2022-11-01T01:59:33.778Z,5.72
2022-11-01T02:02:40.226Z,5.70
2022-11-01T02:05:50.811Z,5.71
2022-11-01T02:09:01.353Z,5.70
2022-11-01T02:12:08.053Z,5.72
2022-11-01T02:15:15.571Z,5.71
2022-11-01T02:18:30.087Z,5.67
2022-11-01T02:21:50.073Z,5.67
2022-11-01T02:25:12.933Z,5.66
2022-11-01T02:28:33.862Z,5.63
2022-11-01T02:32:09.925Z,5.64
2022-11-01T02:35:23.967Z,5.63
2022-11-01T02:38:36.177Z,5.61
2022-11-01T02:41:46.429Z,5.58
2022-11-01T02:44:59.237Z,5.55
2022-11-01T02:48:06.811Z,5.50
2022-11-01T02:51:14.554Z,5.44
2022-11-01T02:54:24.869Z,5.39
2022-11-01T02:57:34.958Z,5.36
2022-11-01T03:00:43.025Z,5.35
2022-11-01T03:03:53.331Z,5.36
2022-11-01T03:07:03.749Z,5.34
2022-11-01T03:10:11.390Z,5.33
2022-11-01T03:13:33.742Z,5.33
2022-11-01T03:16:45.111Z,5.33
2022-11-01T03:20:00.208Z,5.34
2022-11-01T03:23:08.294Z,5.29
2022-11-01T03:26:18.860Z,5.27
2022-11-01T03:29:27.605Z,5.25
2022-11-01T03:32:39.718Z,5.26
2022-11-01T03:35:49.882Z,5.23
2022-11-01T03:39:03.485Z,5.19
2022-11-01T03:42:13.078Z,5.16
2022-11-01T03:45:25.555Z,5.13
2022-11-01T03:48:31.909Z,5.12
2022-11-01T03:51:36.545Z,5.11
2022-11-01T03:54:42.585Z,5.10
2022-11-01T03:57:49.789Z,5.08
2022-11-01T04:00:55.948Z,5.07
2022-11-01T04:04:02.201Z,5.07
2022-11-01T04:07:08.375Z,5.02
2022-11-01T04:10:14.851Z,4.98
2022-11-01T04:13:21.111Z,4.94
2022-11-01T04:16:44.692Z,4.90
2022-11-01T04:20:08.364Z,4.88
2022-11-01T04:23:14.528Z,4.87
2022-11-01T04:26:22.637Z,4.87
2022-11-01T04:29:29.493Z,4.86
2022-11-01T04:32:35.545Z,4.82
2022-11-01T04:35:42.025Z,4.78
2022-11-01T04:38:49.653Z,4.78
2022-11-01T04:41:55.694Z,4.79
2022-11-01T04:45:01.726Z,4.80
2022-11-01T04:48:12.822Z,4.81
2022-11-01T04:51:18.977Z,4.78
2022-11-01T04:54:25.292Z,4.74
2022-11-01T04:57:29.909Z,4.71
2022-11-01T05:00:36.489Z,4.67
2022-11-01T05:03:42.793Z,4.62
2022-11-01T05:06:48.966Z,4.58
2022-11-01T05:09:54.998Z,4.57
2022-11-01T05:13:01.493Z,4.54
2022-11-01T05:16:24.450Z,4.52
2022-11-01T05:19:30.669Z,4.51
2022-11-01T05:22:36.730Z,4.49
2022-11-01T05:25:42.995Z,4.46
2022-11-01T05:28:49.233Z,4.41
2022-11-01T05:31:53.711Z,4.39
2022-11-01T05:34:59.952Z,4.36
2022-11-01T05:38:06.949Z,4.33
2022-11-01T05:44:24.148Z,4.29
2022-11-01T05:47:30.340Z,4.30
2022-11-01T05:50:36.485Z,4.31
2022-11-01T05:53:43.210Z,4.31
2022-11-01T05:56:49.455Z,4.32
2022-11-01T05:59:55.585Z,4.33
2022-11-01T06:03:02.312Z,4.32
2022-11-01T06:06:09.525Z,4.35
2022-11-01T06:09:15.604Z,4.37
2022-11-01T06:12:23.906Z,4.39
2022-11-01T06:15:33.061Z,4.46
2022-11-01T06:18:41.871Z,4.52
2022-11-01T06:21:47.946Z,4.60
2022-11-01T06:24:54.010Z,4.69
2022-11-01T06:28:00.288Z,4.76
2022-11-01T06:31:07.419Z,4.83
2022-11-01T06:34:13.599Z,4.88
2022-11-01T06:37:20.022Z,4.98
2022-11-01T06:40:26.097Z,5.08
2022-11-01T06:43:32.210Z,5.18
2022-11-01T06:46:38.290Z,5.25
2022-11-01T06:49:44.554Z,5.30
2022-11-01T06:52:48.997Z,5.37
2022-11-01T06:55:55.308Z,5.48
2022-11-01T06:59:00.358Z,5.58
2022-11-01T07:02:08.907Z,5.65
2022-11-01T07:05:18.842Z,5.72
2022-11-01T07:08:23.325Z,5.80
2022-11-01T07:11:31.718Z,5.90
2022-11-01T07:14:38.134Z,5.99
2022-11-01T07:17:45.853Z,6.08
2022-11-01T07:20:51.928Z,6.14
2022-11-01T07:23:57.906Z,6.23
2022-11-01T07:27:04.043Z,6.37
2022-11-01T07:30:13.690Z,6.51
2022-11-01T07:33:19.950Z,6.64
2022-11-01T07:36:25.928Z,6.75
2022-11-01T07:39:31.985Z,6.84
2022-11-01T07:42:44.153Z,6.95
2022-11-01T07:45:50.588Z,7.08
2022-11-01T07:48:56.695Z,7.20
2022-11-01T07:52:04.332Z,7.33
2022-11-01T07:55:11.919Z,7.43
2022-11-01T07:58:18.867Z,7.53
2022-11-01T08:01:25.028Z,7.66
2022-11-01T08:04:29.718Z,7.78
2022-11-01T08:07:40.804Z,7.90
2022-11-01T08:10:47.475Z,8.03
2022-11-01T08:13:53.576Z,8.12
2022-11-01T08:17:01.924Z,8.23
2022-11-01T08:20:10.257Z,8.36
2022-11-01T08:23:16.520Z,8.48
2022-11-01T08:26:21.157Z,8.58
2022-11-01T08:29:27.301Z,8.67
2022-11-01T08:32:33.356Z,8.74
2022-11-01T08:35:39.436Z,8.82
2022-11-01T08:38:45.601Z,8.91
2022-11-01T08:41:52.651Z,8.97
2022-11-01T08:44:58.806Z,9.06
2022-11-01T08:48:05.320Z,9.15
2022-11-01T08:51:11.590Z,9.23
2022-11-01T08:54:16.022Z,9.28
2022-11-01T08:57:22.148Z,9.33
2022-11-01T09:00:28.182Z,9.37
2022-11-01T09:03:34.367Z,9.34
2022-11-01T09:06:38.860Z,9.38
2022-11-01T09:09:45.065Z,9.42
2022-11-01T09:12:49.615Z,9.45
2022-11-01T09:15:59.941Z,9.53
2022-11-01T09:19:08.562Z,9.59
2022-11-01T09:22:14.702Z,9.63
2022-11-01T09:25:21.438Z,9.65
2022-11-01T09:28:30.132Z,9.71
2022-11-01T09:31:39.789Z,9.75
2022-11-01T09:34:49.163Z,9.72
2022-11-01T09:38:01.524Z,9.73
2022-11-01T09:41:14.295Z,9.80
2022-11-01T09:44:24.910Z,9.85
2022-11-01T09:47:33.962Z,9.88
2022-11-01T09:50:43.930Z,9.91
2022-11-01T09:53:51.294Z,9.92
2022-11-01T09:57:07.455Z,9.94
2022-11-01T10:00:19.213Z,9.99
2022-11-01T10:03:44.510Z,10.06
2022-11-01T10:06:56.144Z,10.15
2022-11-01T10:10:18.461Z,10.24
2022-11-01T10:13:36.294Z,10.33
2022-11-01T10:16:49.508Z,10.40
2022-11-01T10:19:55.859Z,10.43
2022-11-01T10:23:03.610Z,10.43
2022-11-01T10:26:14.676Z,10.42
2022-11-01T10:29:29.454Z,10.33
2022-11-01T10:32:40.720Z,10.30
2022-11-01T10:35:52.557Z,10.36
2022-11-01T10:42:31.983Z,10.53
2022-11-01T10:45:39.151Z,10.58
2022-11-01T10:48:49.822Z,10.63
2022-11-01T10:52:00.436Z,10.63
2022-11-01T10:55:12.303Z,10.61
2022-11-01T10:58:39.049Z,10.63
2022-11-01T11:01:47.345Z,10.68
2022-11-01T11:04:53.754Z,10.71
2022-11-01T11:08:03.801Z,10.75
2022-11-01T11:11:15.299Z,10.82
2022-11-01T11:14:22.874Z,10.86
2022-11-01T11:17:36.106Z,10.90
2022-11-01T11:20:42.378Z,10.95
2022-11-01T11:23:49.639Z,10.97
2022-11-01T11:26:58.050Z,11.01
2022-11-01T11:30:06.438Z,11.09
2022-11-01T11:33:20.077Z,11.17
2022-11-01T11:36:34.083Z,11.22
2022-11-01T11:39:40.826Z,11.27
2022-11-01T11:42:48.840Z,11.30
2022-11-01T11:46:08.958Z,11.34
2022-11-01T11:49:29.089Z,11.35
2022-11-01T11:52:38.920Z,11.39
2022-11-01T11:55:47.774Z,11.42
2022-11-01T11:58:54.106Z,11.47
2022-11-01T12:02:02.751Z,11.55
2022-11-01T12:05:11.374Z,11.60
2022-11-01T12:08:34.163Z,11.67
2022-11-01T12:11:47.724Z,11.76
2022-11-01T12:14:54.487Z,11.85
2022-11-01T12:18:14.710Z,11.93
2022-11-01T12:21:25.696Z,12.00
2022-11-01T12:24:41.753Z,12.09
2022-11-01T12:27:55.119Z,12.14
2022-11-01T12:31:07.005Z,12.21
2022-11-01T12:34:19.816Z,12.29
2022-11-01T12:37:32.636Z,12.33
2022-11-01T12:40:41.362Z,12.38
2022-11-01T12:44:00.223Z,12.39
2022-11-01T12:47:12.344Z,12.47
2022-11-01T12:50:24.130Z,12.51
2022-11-01T12:53:35.230Z,12.57
2022-11-01T12:56:41.359Z,12.67
2022-11-01T12:59:46.615Z,12.78
2022-11-01T13:03:06.702Z,12.84
2022-11-01T13:06:25.294Z,12.86
2022-11-01T13:09:38.285Z,12.87
2022-11-01T13:12:54.386Z,12.88
2022-11-01T13:16:07.601Z,12.89
2022-11-01T13:19:19.705Z,12.90
2022-11-01T13:22:33.887Z,12.92
2022-11-01T13:25:46.574Z,12.94
2022-11-01T13:29:00.378Z,12.96
2022-11-01T13:32:13.787Z,12.97
2022-11-01T13:35:38.955Z,12.98
2022-11-01T13:38:50.344Z,13.01
2022-11-01T13:42:03.078Z,13.06
2022-11-01T13:45:37.897Z,13.10
2022-11-01T13:49:04.546Z,13.13
2022-11-01T13:52:17.432Z,13.17
2022-11-01T13:55:29.774Z,13.19
2022-11-01T13:58:36.150Z,13.21
2022-11-01T14:01:42.540Z,13.25
2022-11-01T14:04:58.547Z,13.26
2022-11-01T14:08:27.270Z,13.29
2022-11-01T14:11:52.112Z,13.34
2022-11-01T14:15:15.469Z,13.35
2022-11-01T14:18:21.658Z,13.37
2022-11-01T14:21:32.558Z,13.36
2022-11-01T14:24:56.070Z,13.33
2022-11-01T14:28:24.994Z,13.30
2022-11-01T14:31:34.374Z,13.27
2022-11-01T14:34:41.753Z,13.25
2022-11-01T14:37:51.573Z,13.20
2022-11-01T14:40:59.766Z,13.16
2022-11-01T14:44:12.471Z,13.13
2022-11-01T14:47:29.248Z,13.07
2022-11-01T14:50:45.609Z,13.00
2022-11-01T14:53:59.594Z,12.93
2022-11-01T14:57:20.008Z,12.85
2022-11-01T15:00:30.028Z,12.79
2022-11-01T15:03:36.238Z,12.70
2022-11-01T15:06:45.102Z,12.62
2022-11-01T15:10:02.119Z,12.53
2022-11-01T15:13:08.341Z,12.44
2022-11-01T15:16:21.770Z,12.36
2022-11-01T15:19:33.913Z,12.28
2022-11-01T15:22:40.698Z,12.18
2022-11-01T15:25:54.118Z,12.08
2022-11-01T15:29:02.516Z,11.98
2022-11-01T15:32:21.811Z,11.88
2022-11-01T15:35:30.493Z,11.79
2022-11-01T15:38:51.885Z,11.70
2022-11-01T15:41:58.386Z,11.57
2022-11-01T15:45:23.065Z,11.44
2022-11-01T15:48:32.273Z,11.35
2022-11-01T15:51:43.769Z,11.26
2022-11-01T15:54:55.032Z,11.15
2022-11-01T15:58:07.015Z,11.06
2022-11-01T16:01:16.964Z,10.99
2022-11-01T16:04:24.354Z,10.90
2022-11-01T16:07:34.614Z,10.83
2022-11-01T16:10:45.537Z,10.75
2022-11-01T16:13:54.718Z,10.64
2022-11-01T16:17:03.278Z,10.56
2022-11-01T16:20:30.294Z,10.46
2022-11-01T16:23:36.526Z,10.41
2022-11-01T16:26:54.874Z,10.35
2022-11-01T16:30:08.470Z,10.28
2022-11-01T16:33:22.305Z,10.23
2022-11-01T16:36:42.941Z,10.16
2022-11-01T16:39:49.416Z,10.10
2022-11-01T16:42:57.059Z,10.06
2022-11-01T16:46:04.788Z,9.99
2022-11-01T16:49:22.897Z,9.89
2022-11-01T16:52:29.051Z,9.78
2022-11-01T16:55:34.924Z,9.68
2022-11-01T16:58:42.939Z,9.56
2022-11-01T17:01:50.148Z,9.54
2022-11-01T17:05:04.420Z,9.52
2022-11-01T17:08:13.070Z,9.52
2022-11-01T17:11:19.146Z,9.50
2022-11-01T17:14:26.544Z,9.48
2022-11-01T17:17:33.478Z,9.45
2022-11-01T17:20:42.286Z,9.44
2022-11-01T17:23:48.853Z,9.42
2022-11-01T17:26:58.065Z,9.36
2022-11-01T17:30:05.122Z,9.28
2022-11-01T17:33:11.229Z,9.25
2022-11-01T17:36:18.281Z,9.21
2022-11-01T17:39:24.916Z,9.15
2022-11-01T17:42:31.287Z,9.13
2022-11-01T17:45:38.267Z,9.12
2022-11-01T17:48:44.519Z,9.08
2022-11-01T17:51:54.136Z,9.04
2022-11-01T17:55:00.824Z,9.00
2022-11-01T17:58:07.927Z,8.93
2022-11-01T18:01:16.801Z,8.88
2022-11-01T18:04:23.066Z,8.82
2022-11-01T18:07:29.592Z,8.75
2022-11-01T18:10:44.818Z,8.68
2022-11-01T18:14:03.403Z,8.64
2022-11-01T18:17:26.126Z,8.58
2022-11-01T18:20:43.739Z,8.53
2022-11-01T18:23:51.463Z,8.47
2022-11-01T18:26:59.050Z,8.44
2022-11-01T18:30:12.855Z,8.40
2022-11-01T18:33:23.620Z,8.35
2022-11-01T18:36:35.521Z,8.33
2022-11-01T18:39:46.891Z,8.25
2022-11-01T18:42:54.708Z,8.16
2022-11-01T18:49:30.342Z,8.04
2022-11-01T18:52:36.510Z,7.97
2022-11-01T18:55:41.070Z,7.93
2022-11-01T18:58:47.132Z,7.87
2022-11-01T19:01:56.493Z,7.80
2022-11-01T19:05:15.138Z,7.74
2022-11-01T19:08:25.943Z,7.70
2022-11-01T19:11:32.806Z,7.65
2022-11-01T19:14:40.245Z,7.61
2022-11-01T19:17:48.036Z,7.57
2022-11-01T19:20:55.609Z,7.51
2022-11-01T19:24:10.076Z,7.49
2022-11-01T19:27:22.033Z,7.50
2022-11-01T19:30:30.031Z,7.47
2022-11-01T19:33:38.537Z,7.44
2022-11-01T19:36:45.847Z,7.41
2022-11-01T19:39:52.320Z,7.38
2022-11-01T19:43:01.327Z,7.33
2022-11-01T19:46:12.747Z,7.30
2022-11-01T19:49:29.637Z,7.28
2022-11-01T19:52:40.129Z,7.26
2022-11-01T19:55:53.492Z,7.21
2022-11-01T19:59:03.811Z,7.18
2022-11-01T20:02:21.066Z,7.18
2022-11-01T20:05:33.242Z,7.20
2022-11-01T20:08:40.594Z,7.22
2022-11-01T20:11:46.737Z,7.22
2022-11-01T20:14:52.758Z,7.20
2022-11-01T20:17:59.025Z,7.19
2022-11-01T20:21:06.335Z,7.16
2022-11-01T20:24:12.600Z,7.14
2022-11-01T20:27:18.887Z,7.13
2022-11-01T20:30:23.393Z,7.13
2022-11-01T20:33:29.516Z,7.08
2022-11-01T20:36:35.696Z,7.05
2022-11-01T20:39:41.786Z,7.05
2022-11-01T20:42:47.946Z,7.06
2022-11-01T20:45:54.190Z,7.04
2022-11-01T20:48:58.722Z,7.02
2022-11-01T20:52:33.709Z,6.99
2022-11-01T20:55:31.828Z,6.95
2022-11-01T20:58:40.689Z,6.91
2022-11-01T21:01:47.144Z,6.86
2022-11-01T21:05:01.513Z,6.86
2022-11-01T21:08:16.447Z,6.87
2022-11-01T21:11:43.928Z,6.82
2022-11-01T21:14:51.141Z,6.82
2022-11-01T21:18:03.212Z,6.83
2022-11-01T21:21:36.328Z,6.84
2022-11-01T21:24:46.281Z,6.84
2022-11-01T21:27:53.594Z,6.86
2022-11-01T21:31:03.165Z,6.86
2022-11-01T21:34:26.186Z,6.83
2022-11-01T21:37:32.377Z,6.85
2022-11-01T21:40:38.554Z,6.84
2022-11-01T21:43:46.176Z,6.81
2022-11-01T21:46:54.402Z,6.81
2022-11-01T21:50:00.774Z,6.80
2022-11-01T21:53:05.693Z,6.79
2022-11-01T21:56:12.491Z,6.77
2022-11-01T21:59:18.689Z,6.73
2022-11-01T22:02:24.985Z,6.68
2022-11-01T22:05:31.137Z,6.64
2022-11-01T22:08:37.745Z,6.59
2022-11-01T22:11:43.989Z,6.55
2022-11-01T22:14:50.019Z,6.53
2022-11-01T22:17:56.093Z,6.49
2022-11-01T22:21:02.094Z,6.49
2022-11-01T22:24:09.425Z,6.52
2022-11-01T22:27:15.740Z,6.51
2022-11-01T22:30:20.374Z,6.50
2022-11-01T22:33:27.073Z,6.50
2022-11-01T22:36:35.962Z,6.51
2022-11-01T22:39:42.261Z,6.51
2022-11-01T22:42:47.981Z,6.53
2022-11-01T22:45:56.047Z,6.53
2022-11-01T22:49:11.037Z,6.54
2022-11-01T22:52:22.051Z,6.55
2022-11-01T22:55:28.954Z,6.58
2022-11-01T22:58:39.091Z,6.60
2022-11-01T23:01:45.942Z,6.61
2022-11-01T23:04:56.130Z,6.59
2022-11-01T23:08:14.170Z,6.62
2022-11-01T23:11:46.972Z,6.64
2022-11-01T23:14:55.517Z,6.65
2022-11-01T23:18:13.017Z,6.63
2022-11-01T23:21:20.709Z,6.64
2022-11-01T23:24:28.485Z,6.68
2022-11-01T23:27:35.084Z,6.72
2022-11-01T23:30:42.680Z,6.77
2022-11-01T23:33:50.586Z,6.81
2022-11-01T23:36:56.797Z,6.84
2022-11-01T23:40:02.966Z,6.88
2022-11-01T23:43:23.840Z,6.91
2022-11-01T23:46:30.379Z,6.94
2022-11-01T23:49:37.175Z,6.96
2022-11-01T23:52:45.879Z,7.01
2022-11-01T23:55:55.744Z,7.03
2022-11-01T23:59:05.394Z,7.06
